Bin Ghashir, Libya
Current Conditions -  °F | °C
As of 1:30 PM on Friday 21 Nov 2014 (Local Time) from DTTJ Reporting Station
Clear Clear  
Wind Chill: 75°   Ceiling: Unl
Heat Index: 75°   Visibility: 6mi
Dew Point: 59°   Wind: 6mph
Humidity: 57%   Direction: 240°WSW
Pressure: 30.18"   Gusts: NA
Location:  32.68°N, 13.18°E
Report Text: DTTJ 211030Z 24005KT 200V270 CAVOK 24/15 Q1022 NOSIG
Loading
Personal Weather Stations






























Interactive Weather Map New forecast layout! Learn more

10-Day Weather Forecast

Advertisements
Track Severe Weather on mobile